Time,TemperatureF,DewpointF,PressureIn,WindDirection,WindDirectionDegrees,WindSpeedMPH,WindSpeedGustMPH,Humidity,HourlyPrecipIn,Conditions,Clouds,dailyrainin,SoftwareType,DateUTC
2013-01-28 00:03:00,71.8,69.0,29.79,East,90,3.5,3.5,91,0.04,CLR,,1.43,WeatherDisplay:10.37,2013-01-27 13:03:00,
2013-01-28 00:08:00,71.6,68.8,29.79,East,90,3.5,3.5,91,0.04,CLR,,1.43,WeatherDisplay:10.37,2013-01-27 13:08:00,
2013-01-28 00:13:00,71.8,69.0,29.78,SE,135,1.3,0.0,91,0.06,RA,,1.45,WeatherDisplay:10.37,2013-01-27 13:13:00,
2013-01-28 00:18:00,71.6,68.5,29.79,SE,135,2.3,2.8,90,0.06,RA,,1.45,WeatherDisplay:10.37,2013-01-27 13:18:00,
2013-01-28 00:23:00,71.6,68.5,29.79,SE,135,2.3,2.3,90,0.04,CLR,,1.45,WeatherDisplay:10.37,2013-01-27 13:23:00,
2013-01-28 00:28:00,71.6,68.5,29.78,SE,135,1.1,1.1,90,0.04,CLR,,1.45,WeatherDisplay:10.37,2013-01-27 13:28:00,
2013-01-28 00:33:00,71.6,68.5,29.79,SE,135,1.1,1.1,90,0.06,RA,,1.47,WeatherDisplay:10.37,2013-01-27 13:33:00,
2013-01-28 00:38:00,71.6,68.5,29.78,SSE,158,1.1,1.1,90,0.06,RA,,1.47,WeatherDisplay:10.37,2013-01-27 13:38:00,
2013-01-28 00:43:00,71.4,68.3,29.78,ENE,68,2.3,2.3,90,0.06,CLR,,1.47,WeatherDisplay:10.37,2013-01-27 13:43:00,
2013-01-28 00:48:00,71.4,68.3,29.78,NE,45,3.5,3.5,90,0.06,RA,,1.49,WeatherDisplay:10.37,2013-01-27 13:48:00,
2013-01-28 00:53:00,71.4,68.3,29.78,East,90,1.1,1.1,90,0.06,RA,,1.49,WeatherDisplay:10.37,2013-01-27 13:53:00,
2013-01-28 00:58:00,71.4,68.3,29.78,ESE,112,1.1,1.1,90,0.06,CLR,,1.49,WeatherDisplay:10.37,2013-01-27 13:58:00,
2013-01-28 01:03:00,71.4,68.3,29.77,NE,45,3.5,3.5,90,0.06,CLR,,1.49,WeatherDisplay:10.37,2013-01-27 14:03:00,
2013-01-28 01:08:00,71.4,68.3,29.78,NE,45,2.3,2.3,90,0.06,CLR,,1.49,WeatherDisplay:10.37,2013-01-27 14:08:00,
2013-01-28 01:13:00,71.4,68.3,29.78,ENE,68,3.1,3.1,90,0.04,CLR,,1.49,WeatherDisplay:10.37,2013-01-27 14:13:00,
2013-01-28 01:18:00,71.4,68.3,29.78,ENE,68,4.0,4.0,90,0.06,RA,,1.51,WeatherDisplay:10.37,2013-01-27 14:18:00,
2013-01-28 01:23:00,71.2,68.2,29.77,ENE,68,3.5,3.5,90,0.06,RA,,1.51,WeatherDisplay:10.37,2013-01-27 14:23:00,
2013-01-28 01:28:00,71.2,68.2,29.77,East,90,5.8,5.8,90,0.06,CLR,,1.51,WeatherDisplay:10.37,2013-01-27 14:28:00,
2013-01-28 01:33:00,71.2,68.2,29.77,NE,45,3.5,3.5,90,0.06,RA,,1.53,WeatherDisplay:10.37,2013-01-27 14:33:00,
2013-01-28 01:38:00,71.2,68.2,29.77,East,90,3.5,3.5,90,0.06,RA,,1.53,WeatherDisplay:10.37,2013-01-27 14:38:00,
2013-01-28 01:43:00,71.2,68.2,29.77,NE,45,1.1,1.1,90,0.08,RA,,1.55,WeatherDisplay:10.37,2013-01-27 14:43:00,
2013-01-28 01:48:00,71.2,68.2,29.76,SE,135,2.3,2.3,90,0.06,RA,,1.55,WeatherDisplay:10.37,2013-01-27 14:48:00,
2013-01-28 01:53:00,71.1,68.0,29.76,SSE,158,1.3,1.3,90,0.08,RA,,1.57,WeatherDisplay:10.37,2013-01-27 14:53:00,
2013-01-28 01:58:00,70.9,67.8,29.76,SE,135,3.5,3.5,90,0.08,RA,,1.57,WeatherDisplay:10.37,2013-01-27 14:58:00,
2013-01-28 02:03:00,70.9,67.8,29.77,South,180,2.3,2.3,90,0.08,CLR,,1.57,WeatherDisplay:10.37,2013-01-27 15:03:00,
2013-01-28 02:08:00,70.9,67.8,29.77,SSE,158,1.3,1.3,90,0.08,CLR,,1.57,WeatherDisplay:10.37,2013-01-27 15:08:00,
2013-01-28 02:13:00,70.9,67.8,29.76,South,180,1.1,1.1,90,0.08,CLR,,1.57,WeatherDisplay:10.37,2013-01-27 15:13:00,
2013-01-28 02:18:00,70.9,67.8,29.76,SSE,158,0.0,0.0,90,0.08,RA,,1.59,WeatherDisplay:10.37,2013-01-27 15:18:00,
2013-01-28 02:23:00,70.9,67.8,29.76,ESE,112,2.2,2.2,90,0.08,RA,,1.59,WeatherDisplay:10.37,2013-01-27 15:23:00,
2013-01-28 02:28:00,70.9,67.8,29.76,East,90,2.3,2.3,90,0.08,CLR,,1.59,WeatherDisplay:10.37,2013-01-27 15:28:00,
2013-01-28 02:33:00,70.9,67.8,29.76,ENE,68,1.1,1.1,90,0.06,CLR,,1.59,WeatherDisplay:10.37,2013-01-27 15:33:00,
2013-01-28 02:38:00,70.9,67.8,29.75,ESE,112,1.1,0.0,90,0.06,CLR,,1.59,WeatherDisplay:10.37,2013-01-27 15:38:00,
2013-01-28 02:43:00,70.9,67.8,29.75,ESE,112,2.3,2.3,90,0.04,CLR,,1.59,WeatherDisplay:10.37,2013-01-27 15:43:00,
2013-01-28 02:48:00,70.9,67.8,29.75,SE,135,1.6,1.6,90,0.04,CLR,,1.59,WeatherDisplay:10.37,2013-01-27 15:48:00,
2013-01-28 02:53:00,70.9,67.8,29.76,SE,135,1.1,1.1,90,0.02,CLR,,1.59,WeatherDisplay:10.37,2013-01-27 15:53:00,
2013-01-28 02:58:00,70.7,67.6,29.76,SE,135,1.1,1.1,90,0.02,CLR,,1.59,WeatherDisplay:10.37,2013-01-27 15:58:00,
2013-01-28 03:03:00,70.7,67.6,29.76,ESE,112,1.1,1.1,90,0.02,CLR,,1.59,WeatherDisplay:10.37,2013-01-27 16:03:00,
2013-01-28 03:08:00,70.7,67.6,29.76,East,90,1.1,1.1,90,0.02,CLR,,1.61,WeatherDisplay:10.37,2013-01-27 16:08:00,
2013-01-28 03:13:00,70.7,67.6,29.76,East,90,2.3,2.3,90,0.04,RA,,1.61,WeatherDisplay:10.37,2013-01-27 16:13:00,
2013-01-28 03:18:00,70.7,67.6,29.75,East,90,1.6,1.6,90,0.02,RA,,1.61,WeatherDisplay:10.37,2013-01-27 16:18:00,
2013-01-28 03:23:00,70.7,67.6,29.75,ESE,112,1.1,1.1,90,0.04,RA,,1.63,WeatherDisplay:10.37,2013-01-27 16:23:00,
2013-01-28 03:28:00,70.7,67.6,29.75,ENE,68,2.3,2.3,90,0.04,RA,,1.63,WeatherDisplay:10.37,2013-01-27 16:28:00,
2013-01-28 03:33:00,70.7,67.6,29.75,ESE,112,2.3,2.3,90,0.04,CLR,,1.63,WeatherDisplay:10.37,2013-01-27 16:33:00,
2013-01-28 03:38:00,70.7,67.6,29.74,East,90,2.3,2.3,90,0.06,RA,,1.65,WeatherDisplay:10.37,2013-01-27 16:38:00,
2013-01-28 03:43:00,70.7,67.6,29.74,ENE,68,0.0,0.0,90,0.06,RA,,1.65,WeatherDisplay:10.37,2013-01-27 16:43:00,
2013-01-28 03:48:00,70.7,67.6,29.74,ENE,68,2.3,2.3,90,0.06,CLR,,1.65,WeatherDisplay:10.37,2013-01-27 16:48:00,
2013-01-28 03:53:00,70.7,67.6,29.74,NNE,22,3.5,3.5,90,0.06,CLR,,1.65,WeatherDisplay:10.37,2013-01-27 16:53:00,
2013-01-28 03:58:00,70.7,67.6,29.73,ENE,68,0.0,0.0,90,0.06,CLR,,1.65,WeatherDisplay:10.37,2013-01-27 16:58:00,
2013-01-28 04:03:00,70.5,67.4,29.73,ENE,68,1.1,1.1,90,0.06,CLR,,1.65,WeatherDisplay:10.37,2013-01-27 17:03:00,
2013-01-28 04:08:00,70.5,67.4,29.73,East,90,1.1,0.0,90,0.06,CLR,,1.65,WeatherDisplay:10.37,2013-01-27 17:08:00,
2013-01-28 04:13:00,70.5,67.4,29.73,South,180,0.0,0.0,90,0.06,RA,,1.67,WeatherDisplay:10.37,2013-01-27 17:13:00,
2013-01-28 04:18:00,70.5,67.4,29.73,SE,135,1.1,1.1,90,0.06,RA,,1.67,WeatherDisplay:10.37,2013-01-27 17:18:00,
2013-01-28 04:23:00,70.3,67.3,29.73,SE,135,0.0,0.0,90,0.04,CLR,,1.67,WeatherDisplay:10.37,2013-01-27 17:23:00,
2013-01-28 04:28:00,70.3,67.3,29.73,SE,135,0.0,0.0,90,0.04,CLR,,1.67,WeatherDisplay:10.37,2013-01-27 17:28:00,
2013-01-28 04:33:00,70.3,67.3,29.74,SSE,158,0.0,0.0,90,0.04,CLR,,1.67,WeatherDisplay:10.37,2013-01-27 17:33:00,
2013-01-28 04:38:00,70.3,67.3,29.75,South,180,0.0,0.0,90,0.02,CLR,,1.67,WeatherDisplay:10.37,2013-01-27 17:38:00,
2013-01-28 04:43:00,70.3,67.3,29.75,SSW,202,1.1,1.1,90,0.02,CLR,,1.67,WeatherDisplay:10.37,2013-01-27 17:43:00,
2013-01-28 04:48:00,70.3,67.3,29.75,South,180,0.0,0.0,90,0.02,CLR,,1.67,WeatherDisplay:10.37,2013-01-27 17:48:00,
2013-01-28 04:53:00,70.3,67.3,29.75,WSW,248,0.0,0.0,90,0.02,CLR,,1.67,WeatherDisplay:10.37,2013-01-27 17:53:00,
2013-01-28 04:58:00,70.3,67.3,29.75,SSW,202,0.0,0.0,90,0.02,CLR,,1.67,WeatherDisplay:10.37,2013-01-27 17:58:00,
2013-01-28 05:03:00,70.2,67.1,29.75,South,180,0.0,0.0,90,0.02,CLR,,1.67,WeatherDisplay:10.37,2013-01-27 18:03:00,
2013-01-28 05:08:00,70.2,67.1,29.75,SSE,158,0.0,0.0,90,0.04,RA,,1.69,WeatherDisplay:10.37,2013-01-27 18:08:00,
2013-01-28 05:13:00,70.2,67.1,29.75,SSE,158,0.0,0.0,90,0.02,RA,,1.69,WeatherDisplay:10.37,2013-01-27 18:13:00,
2013-01-28 05:18:00,70.2,67.1,29.74,ENE,68,2.5,2.5,90,0.02,CLR,,1.69,WeatherDisplay:10.37,2013-01-27 18:18:00,
2013-01-28 05:23:00,70.2,67.1,29.75,ENE,68,3.5,3.5,90,0.02,CLR,,1.69,WeatherDisplay:10.37,2013-01-27 18:23:00,
2013-01-28 05:28:00,70.2,67.1,29.74,ESE,112,3.5,3.5,90,0.02,CLR,,1.69,WeatherDisplay:10.37,2013-01-27 18:28:00,
2013-01-28 05:33:00,70.2,67.1,29.74,ENE,68,2.3,2.3,90,0.02,CLR,,1.69,WeatherDisplay:10.37,2013-01-27 18:33:00,
2013-01-28 05:38:00,70.2,67.1,29.74,NNW,338,0.0,0.1,90,0.02,CLR,,1.69,WeatherDisplay:10.37,2013-01-27 18:38:00,
2013-01-28 05:43:00,70.0,66.9,29.74,NE,45,0.0,0.0,90,0.02,CLR,,1.71,WeatherDisplay:10.37,2013-01-27 18:43:00,
2013-01-28 05:48:00,70.0,66.9,29.75,East,90,0.0,0.0,90,0.04,RA,,1.71,WeatherDisplay:10.37,2013-01-27 18:48:00,
2013-01-28 05:53:00,70.0,66.9,29.75,East,90,0.0,0.0,90,0.04,RA,,1.71,WeatherDisplay:10.37,2013-01-27 18:53:00,
2013-01-28 05:58:00,70.0,66.9,29.75,East,90,0.0,0.0,90,0.04,CLR,,1.71,WeatherDisplay:10.37,2013-01-27 18:58:00,
2013-01-28 06:03:00,70.0,66.9,29.75,SSW,202,0.0,0.0,90,0.04,CLR,,1.71,WeatherDisplay:10.37,2013-01-27 19:03:00,
2013-01-28 06:08:00,70.0,66.9,29.75,WSW,248,0.0,0.0,90,0.02,CLR,,1.71,WeatherDisplay:10.37,2013-01-27 19:08:00,
2013-01-28 06:13:00,70.0,66.9,29.75,SSW,202,0.0,0.0,90,0.02,CLR,,1.71,WeatherDisplay:10.37,2013-01-27 19:13:00,
2013-01-28 06:18:00,70.0,66.9,29.75,SSW,202,0.0,0.0,90,0.02,CLR,,1.71,WeatherDisplay:10.37,2013-01-27 19:18:00,
2013-01-28 06:23:00,70.0,66.9,29.75,SE,135,1.1,0.0,90,0.04,RA,,1.73,WeatherDisplay:10.37,2013-01-27 19:23:00,
2013-01-28 06:28:00,70.0,66.9,29.76,ESE,112,0.0,0.0,90,0.04,RA,,1.73,WeatherDisplay:10.37,2013-01-27 19:28:00,
2013-01-28 06:33:00,70.0,66.9,29.76,East,90,1.1,1.1,90,0.04,CLR,,1.73,WeatherDisplay:10.37,2013-01-27 19:33:00,
2013-01-28 06:38:00,70.2,67.1,29.75,NE,45,2.3,2.3,90,0.06,RA,,1.75,WeatherDisplay:10.37,2013-01-27 19:38:00,
2013-01-28 06:43:00,70.2,67.4,29.75,ESE,112,1.3,1.3,91,0.06,RA,,1.75,WeatherDisplay:10.37,2013-01-27 19:43:00,
2013-01-28 06:48:00,70.2,67.4,29.76,ENE,68,3.5,3.5,91,0.04,CLR,,1.75,WeatherDisplay:10.37,2013-01-27 19:48:00,
2013-01-28 06:53:00,70.2,67.4,29.76,ENE,68,3.5,3.5,91,0.06,RA,,1.77,WeatherDisplay:10.37,2013-01-27 19:53:00,
2013-01-28 06:58:00,70.2,67.4,29.76,ESE,112,4.0,4.0,91,0.06,RA,,1.77,WeatherDisplay:10.37,2013-01-27 19:58:00,
2013-01-28 07:03:00,70.3,67.6,29.76,East,90,4.0,4.0,91,0.08,RA,,1.79,WeatherDisplay:10.37,2013-01-27 20:03:00,
2013-01-28 07:08:00,70.3,67.6,29.76,East,90,4.6,4.6,91,0.08,RA,,1.79,WeatherDisplay:10.37,2013-01-27 20:08:00,
2013-01-28 07:13:00,70.3,67.6,29.76,North,0,5.8,5.8,91,0.08,CLR,,1.79,WeatherDisplay:10.37,2013-01-27 20:13:00,
2013-01-28 07:18:00,70.3,67.6,29.76,NNW,338,6.9,6.9,91,0.08,CLR,,1.79,WeatherDisplay:10.37,2013-01-27 20:18:00,
2013-01-28 07:23:00,70.3,67.6,29.76,East,90,6.9,6.9,91,0.08,RA,,1.81,WeatherDisplay:10.37,2013-01-27 20:23:00,
2013-01-28 07:28:00,70.3,67.6,29.76,North,0,4.6,5.4,91,0.08,RA,,1.81,WeatherDisplay:10.37,2013-01-27 20:28:00,
2013-01-28 07:33:00,70.3,67.6,29.76,NNE,22,3.5,3.5,91,0.08,CLR,,1.81,WeatherDisplay:10.37,2013-01-27 20:33:00,
2013-01-28 07:39:00,70.3,67.6,29.77,ENE,68,4.6,4.6,91,0.08,RA,,1.83,WeatherDisplay:10.37,2013-01-27 20:39:00,
2013-01-28 07:44:00,70.3,67.6,29.76,NNE,22,8.1,8.1,91,0.08,RA,,1.83,WeatherDisplay:10.37,2013-01-27 20:44:00,
2013-01-28 07:49:00,70.3,67.6,29.76,NNW,338,3.5,3.5,91,0.08,CLR,,1.83,WeatherDisplay:10.37,2013-01-27 20:49:00,
2013-01-28 07:54:00,70.5,67.8,29.77,ENE,68,3.5,4.4,91,0.08,RA,,1.85,WeatherDisplay:10.37,2013-01-27 20:54:00,
2013-01-28 07:59:00,70.5,67.8,29.77,NNW,338,5.1,5.1,91,0.10,RA,,1.87,WeatherDisplay:10.37,2013-01-27 20:59:00,
2013-01-28 08:04:00,70.5,67.8,29.77,ENE,68,9.2,9.2,91,0.08,RA,,1.87,WeatherDisplay:10.37,2013-01-27 21:04:00,
2013-01-28 08:09:00,70.3,67.6,29.77,East,90,8.9,8.9,91,0.08,CLR,,1.87,WeatherDisplay:10.37,2013-01-27 21:09:00,
2013-01-28 08:14:00,70.5,67.8,29.77,ENE,68,11.5,11.5,91,0.10,RA,,1.89,WeatherDisplay:10.37,2013-01-27 21:14:00,
2013-01-28 08:19:00,70.5,68.1,29.77,ENE,68,10.4,10.4,92,0.12,RA,,1.91,WeatherDisplay:10.37,2013-01-27 21:19:00,
2013-01-28 08:24:00,70.5,68.1,29.77,NE,45,3.5,3.5,92,0.12,RA,,1.93,WeatherDisplay:10.37,2013-01-27 21:24:00,
2013-01-28 08:29:00,70.7,68.3,29.77,NNE,22,10.4,10.4,92,0.12,RA,,1.93,WeatherDisplay:10.37,2013-01-27 21:29:00,
2013-01-28 08:34:00,70.7,68.3,29.77,ENE,68,5.8,5.8,92,0.12,CLR,,1.93,WeatherDisplay:10.37,2013-01-27 21:34:00,
2013-01-28 08:39:00,70.7,68.3,29.78,ENE,68,3.5,3.5,92,0.12,RA,,1.95,WeatherDisplay:10.37,2013-01-27 21:39:00,
2013-01-28 08:44:00,70.9,68.4,29.78,NNE,22,4.6,4.6,92,0.14,RA,,1.97,WeatherDisplay:10.37,2013-01-27 21:44:00,
2013-01-28 08:49:00,70.9,68.4,29.78,NW,315,8.1,8.1,92,0.14,RA,,1.97,WeatherDisplay:10.37,2013-01-27 21:49:00,
2013-01-28 08:54:00,70.9,68.4,29.78,East,90,3.6,3.6,92,0.12,CLR,,1.97,WeatherDisplay:10.37,2013-01-27 21:54:00,
2013-01-28 08:59:00,70.9,68.4,29.78,NNE,22,8.1,8.1,92,0.12,RA,,1.99,WeatherDisplay:10.37,2013-01-27 21:59:00,
2013-01-28 09:04:00,70.9,68.4,29.77,NE,45,5.8,5.8,92,0.12,RA,,0.00,WeatherDisplay:10.37,2013-01-27 22:04:00,
2013-01-28 09:09:00,71.2,68.8,29.78,NW,315,5.8,5.8,92,0.12,RA,,0.00,WeatherDisplay:10.37,2013-01-27 22:09:00,
2013-01-28 09:14:00,71.1,68.6,29.77,ENE,68,3.5,3.5,92,0.12,RA,,0.02,WeatherDisplay:10.37,2013-01-27 22:14:00,
2013-01-28 09:19:00,71.2,68.8,29.77,NNE,22,3.5,3.5,92,0.10,RA,,0.02,WeatherDisplay:10.37,2013-01-27 22:19:00,
2013-01-28 09:24:00,71.2,68.5,29.77,NE,45,2.3,2.3,91,0.12,RA,,0.04,WeatherDisplay:10.37,2013-01-27 22:24:00,
2013-01-28 09:29:00,71.2,68.5,29.78,ENE,68,2.3,2.3,91,0.10,RA,,0.04,WeatherDisplay:10.37,2013-01-27 22:29:00,
2013-01-28 09:34:00,71.2,68.5,29.78,ENE,68,3.5,3.5,91,0.10,CLR,,0.04,WeatherDisplay:10.37,2013-01-27 22:34:00,
2013-01-28 09:39:00,71.2,68.5,29.78,ENE,68,5.8,5.8,91,0.08,CLR,,0.04,WeatherDisplay:10.37,2013-01-27 22:39:00,
2013-01-28 09:44:00,71.2,68.5,29.78,NE,45,8.1,8.1,91,0.08,RA,,0.06,WeatherDisplay:10.37,2013-01-27 22:44:00,
2013-01-28 09:49:00,71.2,68.5,29.78,East,90,4.6,4.6,91,0.10,RA,,0.08,WeatherDisplay:10.37,2013-01-27 22:49:00,
2013-01-28 09:54:00,71.2,68.5,29.78,ESE,112,2.3,2.3,91,0.10,RA,,0.08,WeatherDisplay:10.37,2013-01-27 22:54:00,
2013-01-28 09:59:00,71.2,68.5,29.78,East,90,3.8,3.8,91,0.12,RA,,0.12,WeatherDisplay:10.37,2013-01-27 22:59:00,
2013-01-28 10:04:00,71.2,68.5,29.78,ENE,68,5.8,5.8,91,0.14,RA,,0.14,WeatherDisplay:10.37,2013-01-27 23:04:00,
2013-01-28 10:09:00,71.2,68.5,29.78,East,90,5.1,5.1,91,0.14,RA,,0.14,WeatherDisplay:10.37,2013-01-27 23:09:00,
2013-01-28 10:14:00,71.2,68.5,29.78,East,90,5.8,5.8,91,0.12,CLR,,0.14,WeatherDisplay:10.37,2013-01-27 23:14:00,
2013-01-28 10:19:00,71.2,68.2,29.78,East,90,2.3,2.3,90,0.14,RA,,0.16,WeatherDisplay:10.37,2013-01-27 23:19:00,
2013-01-28 10:24:00,71.2,68.2,29.78,East,90,3.5,3.5,90,0.12,RA,,0.16,WeatherDisplay:10.37,2013-01-27 23:24:00,
2013-01-28 10:29:00,71.2,68.2,29.78,SE,135,2.3,2.3,90,0.14,RA,,0.18,WeatherDisplay:10.37,2013-01-27 23:29:00,
2013-01-28 10:34:00,71.2,68.2,29.78,NE,45,8.1,8.1,90,0.16,RA,,0.20,WeatherDisplay:10.37,2013-01-27 23:34:00,
2013-01-28 10:39:00,71.2,68.2,29.78,ESE,112,1.1,1.1,90,0.18,RA,,0.22,WeatherDisplay:10.37,2013-01-27 23:39:00,
2013-01-28 10:44:00,71.2,68.2,29.78,NE,45,5.8,5.8,90,0.16,RA,,0.22,WeatherDisplay:10.37,2013-01-27 23:44:00,
2013-01-28 10:49:00,71.2,68.2,29.78,SE,135,2.3,0.0,90,0.14,CLR,,0.24,WeatherDisplay:10.37,2013-01-27 23:49:00,
2013-01-28 10:54:00,71.2,68.2,29.78,East,90,4.6,4.6,90,0.16,RA,,0.24,WeatherDisplay:10.37,2013-01-27 23:54:00,
2013-01-28 10:59:00,71.2,68.2,29.78,East,90,3.5,3.5,90,0.14,RA,,0.26,WeatherDisplay:10.37,2013-01-27 23:59:00,
2013-01-28 11:04:00,71.2,68.2,29.78,NE,45,2.3,2.3,90,0.16,RA,,0.30,WeatherDisplay:10.37,2013-01-28 00:04:00,
2013-01-28 11:09:00,71.4,68.3,29.78,ESE,112,5.8,5.8,90,0.16,RA,,0.30,WeatherDisplay:10.37,2013-01-28 00:09:00,
2013-01-28 11:14:00,71.4,68.3,29.78,ESE,112,1.6,1.6,90,0.18,RA,,0.34,WeatherDisplay:10.37,2013-01-28 00:14:00,
2013-01-28 11:19:00,71.4,68.3,29.77,East,90,1.1,1.1,90,0.18,RA,,0.34,WeatherDisplay:10.37,2013-01-28 00:19:00,
2013-01-28 11:24:00,71.4,68.7,29.78,SSE,158,1.1,1.1,91,0.20,RA,,0.37,WeatherDisplay:10.37,2013-01-28 00:24:00,
2013-01-28 11:29:00,71.6,68.8,29.77,ESE,112,1.3,1.3,91,0.21,RA,,0.39,WeatherDisplay:10.37,2013-01-28 00:29:00,
2013-01-28 11:34:00,71.8,69.0,29.77,SE,135,1.1,0.0,91,0.21,RA,,0.41,WeatherDisplay:10.37,2013-01-28 00:34:00,
2013-01-28 11:39:00,71.8,69.0,29.77,SE,135,1.1,1.1,91,0.21,RA,,0.43,WeatherDisplay:10.37,2013-01-28 00:39:00,
2013-01-28 11:44:00,71.8,69.0,29.77,SSE,158,0.0,0.0,91,0.25,RA,,0.49,WeatherDisplay:10.37,2013-01-28 00:44:00,
2013-01-28 11:49:00,71.8,69.0,29.77,East,90,0.0,0.0,91,0.29,RA,,0.51,WeatherDisplay:10.37,2013-01-28 00:49:00,
2013-01-28 11:54:00,71.8,69.0,29.77,ENE,68,0.0,0.0,91,0.29,RA,,0.53,WeatherDisplay:10.37,2013-01-28 00:54:00,
2013-01-28 11:59:00,71.8,69.0,29.77,ENE,68,2.3,2.3,91,0.29,RA,,0.57,WeatherDisplay:10.37,2013-01-28 00:59:00,
2013-01-28 12:04:00,71.8,69.0,29.77,NE,45,2.3,2.3,91,0.29,RA,,0.59,WeatherDisplay:10.37,2013-01-28 01:04:00,
2013-01-28 12:09:00,71.8,69.0,29.76,SSE,158,2.3,2.3,91,0.31,RA,,0.61,WeatherDisplay:10.37,2013-01-28 01:09:00,
2013-01-28 12:14:00,71.8,69.0,29.76,East,90,1.6,1.6,91,0.31,RA,,0.63,WeatherDisplay:10.37,2013-01-28 01:14:00,
2013-01-28 12:19:00,71.8,69.0,29.76,ENE,68,2.3,2.3,91,0.35,RA,,0.69,WeatherDisplay:10.37,2013-01-28 01:19:00,
2013-01-28 12:24:00,71.8,68.7,29.76,ESE,112,6.3,6.3,90,0.35,RA,,0.71,WeatherDisplay:10.37,2013-01-28 01:24:00,
2013-01-28 12:29:00,71.6,68.5,29.76,East,90,7.2,7.2,90,0.33,RA,,0.71,WeatherDisplay:10.37,2013-01-28 01:29:00,
2013-01-28 12:34:00,71.4,68.3,29.75,East,90,4.6,4.6,90,0.33,RA,,0.73,WeatherDisplay:10.37,2013-01-28 01:34:00,
2013-01-28 12:39:00,71.4,68.3,29.75,North,0,5.8,5.8,90,0.31,RA,,0.73,WeatherDisplay:10.37,2013-01-28 01:39:00,
2013-01-28 12:44:00,71.2,68.2,29.75,ENE,68,13.6,13.6,90,0.31,RA,,0.78,WeatherDisplay:10.37,2013-01-28 01:44:00,
2013-01-28 12:49:00,71.2,68.2,29.75,SE,135,6.3,6.3,90,0.27,RA,,0.78,WeatherDisplay:10.37,2013-01-28 01:49:00,
2013-01-28 12:54:00,71.2,68.2,29.75,East,90,11.2,11.2,90,0.27,RA,,0.80,WeatherDisplay:10.37,2013-01-28 01:54:00,
2013-01-28 12:59:00,71.2,68.2,29.75,NNE,22,6.9,6.9,90,0.27,RA,,0.84,WeatherDisplay:10.37,2013-01-28 01:59:00,
2013-01-28 13:04:00,70.9,67.8,29.75,ENE,68,4.6,4.6,90,0.28,RA,,0.88,WeatherDisplay:10.37,2013-01-28 02:04:00,
2013-01-28 13:09:00,70.9,67.8,29.75,SE,135,5.8,5.8,90,0.30,RA,,0.92,WeatherDisplay:10.37,2013-01-28 02:09:00,
2013-01-28 13:14:00,70.7,67.6,29.74,ENE,68,4.6,4.6,90,0.32,RA,,0.96,WeatherDisplay:10.37,2013-01-28 02:14:00,
2013-01-28 13:19:00,70.5,67.4,29.74,East,90,5.8,5.8,90,0.32,RA,,1.02,WeatherDisplay:10.37,2013-01-28 02:19:00,
2013-01-28 13:24:00,70.5,67.4,29.74,ENE,68,3.5,3.5,90,0.38,RA,,1.10,WeatherDisplay:10.37,2013-01-28 02:24:00,
2013-01-28 13:29:00,70.5,67.4,29.73,SE,135,1.1,1.1,90,0.47,RA,,1.18,WeatherDisplay:10.37,2013-01-28 02:29:00,
2013-01-28 13:34:00,70.5,67.4,29.73,NE,45,1.1,1.1,90,0.51,RA,,1.24,WeatherDisplay:10.37,2013-01-28 02:34:00,
2013-01-28 13:39:00,70.5,67.4,29.73,SSE,158,3.5,3.5,90,0.55,RA,,1.30,WeatherDisplay:10.37,2013-01-28 02:39:00,
2013-01-28 13:44:00,70.5,67.4,29.73,East,90,2.3,2.4,90,0.55,RA,,1.32,WeatherDisplay:10.37,2013-01-28 02:44:00,
2013-01-28 13:49:00,70.5,67.8,29.73,WSW,248,2.3,2.3,91,0.59,RA,,1.39,WeatherDisplay:10.37,2013-01-28 02:49:00,
2013-01-28 13:54:00,70.5,67.8,29.73,ENE,68,4.7,4.7,91,0.61,RA,,1.41,WeatherDisplay:10.37,2013-01-28 02:54:00,
2013-01-28 13:59:00,70.5,67.8,29.73,NNE,22,8.1,8.1,91,0.63,RA,,1.45,WeatherDisplay:10.37,2013-01-28 02:59:00,
2013-01-28 14:04:00,70.7,67.9,29.73,SE,135,6.9,6.9,91,0.59,RA,,1.47,WeatherDisplay:10.37,2013-01-28 03:04:00,
2013-01-28 14:09:00,70.9,68.4,29.72,East,90,8.1,8.1,92,0.59,RA,,1.51,WeatherDisplay:10.37,2013-01-28 03:09:00,
2013-01-28 14:14:00,70.9,68.4,29.72,East,90,5.8,5.8,92,0.59,RA,,1.57,WeatherDisplay:10.37,2013-01-28 03:14:00,
2013-01-28 14:19:00,70.9,68.4,29.72,East,90,2.3,2.3,92,0.61,RA,,1.63,WeatherDisplay:10.37,2013-01-28 03:19:00,
2013-01-28 14:24:00,70.9,68.4,29.72,ESE,112,4.6,4.6,92,0.61,RA,,1.73,WeatherDisplay:10.37,2013-01-28 03:24:00,
2013-01-28 14:29:00,70.9,68.4,29.71,East,90,2.3,2.3,92,0.57,RA,,1.75,WeatherDisplay:10.37,2013-01-28 03:29:00,
2013-01-28 14:34:00,70.9,68.4,29.72,NNE,22,2.5,2.5,92,0.53,RA,,1.77,WeatherDisplay:10.37,2013-01-28 03:34:00,
2013-01-28 14:39:00,71.2,68.8,29.71,ENE,68,2.9,2.9,92,0.53,RA,,1.81,WeatherDisplay:10.37,2013-01-28 03:39:00,
2013-01-28 14:44:00,71.2,68.8,29.71,NE,45,5.8,5.8,92,0.53,RA,,1.85,WeatherDisplay:10.37,2013-01-28 03:44:00,
2013-01-28 14:49:00,71.2,68.8,29.71,NNE,22,9.2,9.2,92,0.53,RA,,1.89,WeatherDisplay:10.37,2013-01-28 03:49:00,
2013-01-28 14:54:00,71.2,68.8,29.71,North,0,9.2,9.2,92,0.53,RA,,1.93,WeatherDisplay:10.37,2013-01-28 03:54:00,
2013-01-28 14:59:00,71.2,68.8,29.70,ESE,112,4.6,4.6,92,0.51,RA,,1.95,WeatherDisplay:10.37,2013-01-28 03:59:00,
2013-01-28 15:04:00,71.2,68.8,29.70,ESE,112,5.8,6.7,92,0.53,RA,,1.99,WeatherDisplay:10.37,2013-01-28 04:04:00,
2013-01-28 15:09:00,71.2,68.8,29.70,East,90,13.8,13.8,92,0.51,RA,,2.01,WeatherDisplay:10.37,2013-01-28 04:09:00,
2013-01-28 15:14:00,71.2,68.8,29.70,East,90,9.2,9.2,92,0.51,RA,,2.05,WeatherDisplay:10.37,2013-01-28 04:14:00,
2013-01-28 15:19:00,71.2,68.8,29.70,ENE,68,11.5,11.5,92,0.44,RA,,2.07,WeatherDisplay:10.37,2013-01-28 04:19:00,
2013-01-28 15:24:00,71.2,68.8,29.70,ENE,68,11.5,11.5,92,0.38,RA,,2.09,WeatherDisplay:10.37,2013-01-28 04:24:00,
2013-01-28 15:29:00,71.2,68.8,29.69,NE,45,11.5,11.5,92,0.36,RA,,2.11,WeatherDisplay:10.37,2013-01-28 04:29:00,
2013-01-28 15:34:00,71.2,68.8,29.69,ESE,112,10.4,10.4,92,0.36,RA,,2.13,WeatherDisplay:10.37,2013-01-28 04:34:00,
2013-01-28 15:39:00,71.2,68.8,29.69,NE,45,12.7,12.7,92,0.36,RA,,2.17,WeatherDisplay:10.37,2013-01-28 04:39:00,
2013-01-28 15:44:00,71.2,68.8,29.69,SSE,158,15.0,15.0,92,0.32,RA,,2.17,WeatherDisplay:10.37,2013-01-28 04:44:00,
2013-01-28 15:49:00,71.2,68.8,29.69,NNE,22,9.2,9.2,92,0.30,RA,,2.19,WeatherDisplay:10.37,2013-01-28 04:49:00,
2013-01-28 15:54:00,71.2,68.8,29.69,ENE,68,16.1,16.1,92,0.28,RA,,2.21,WeatherDisplay:10.37,2013-01-28 04:54:00,
2013-01-28 15:59:00,71.2,68.8,29.69,East,90,4.6,5.3,92,0.28,RA,,2.23,WeatherDisplay:10.37,2013-01-28 04:59:00,
2013-01-28 16:03:00,71.2,68.5,29.69,ESE,112,12.7,12.7,91,0.26,RA,,2.25,WeatherDisplay:10.37,2013-01-28 05:03:00,
2013-01-28 16:08:00,70.9,68.1,29.69,SE,135,10.4,10.4,91,0.28,RA,,2.29,WeatherDisplay:10.37,2013-01-28 05:08:00,
2013-01-28 16:13:00,70.9,68.1,29.69,NE,45,9.2,9.2,91,0.26,RA,,2.29,WeatherDisplay:10.37,2013-01-28 05:13:00,
2013-01-28 16:18:00,70.9,68.1,29.69,ESE,112,8.1,8.1,91,0.24,CLR,,2.29,WeatherDisplay:10.37,2013-01-28 05:18:00,
2013-01-28 16:23:00,70.9,68.1,29.69,East,90,7.4,7.4,91,0.20,CLR,,2.29,WeatherDisplay:10.37,2013-01-28 05:23:00,
2013-01-28 16:28:00,70.9,68.1,29.69,NE,45,8.1,8.1,91,0.18,CLR,,2.29,WeatherDisplay:10.37,2013-01-28 05:28:00,
2013-01-28 16:33:00,70.9,68.1,29.68,SE,135,9.2,9.2,91,0.18,RA,,2.31,WeatherDisplay:10.37,2013-01-28 05:33:00,
2013-01-28 16:38:00,70.9,68.1,29.68,East,90,11.5,11.5,91,0.18,RA,,2.33,WeatherDisplay:10.37,2013-01-28 05:38:00,
2013-01-28 16:43:00,70.9,68.1,29.68,SE,135,18.4,18.4,91,0.18,RA,,2.36,WeatherDisplay:10.37,2013-01-28 05:43:00,
2013-01-28 16:48:00,70.9,68.1,29.68,ESE,112,10.4,10.4,91,0.18,RA,,2.38,WeatherDisplay:10.37,2013-01-28 05:48:00,
2013-01-28 16:53:00,70.9,68.1,29.68,ESE,112,11.5,11.5,91,0.16,RA,,2.38,WeatherDisplay:10.37,2013-01-28 05:53:00,
2013-01-28 16:58:00,70.9,68.1,29.67,ENE,68,15.0,15.0,91,0.14,CLR,,2.40,WeatherDisplay:10.37,2013-01-28 05:58:00,
2013-01-28 17:03:00,70.9,68.1,29.67,ENE,68,12.7,12.7,91,0.14,RA,,2.40,WeatherDisplay:10.37,2013-01-28 06:03:00,
2013-01-28 17:08:00,70.9,68.4,29.67,ESE,112,10.4,10.4,92,0.12,RA,,2.44,WeatherDisplay:10.37,2013-01-28 06:08:00,
2013-01-28 17:13:00,70.9,68.4,29.66,SSE,158,12.7,12.7,92,0.16,RA,,2.46,WeatherDisplay:10.37,2013-01-28 06:13:00,
2013-01-28 17:18:00,70.9,68.4,29.66,East,90,17.3,17.3,92,0.18,RA,,2.48,WeatherDisplay:10.37,2013-01-28 06:18:00,
2013-01-28 17:23:00,70.9,68.4,29.67,ESE,112,12.7,12.7,92,0.22,RA,,2.52,WeatherDisplay:10.37,2013-01-28 06:23:00,
2013-01-28 17:28:00,70.9,68.4,29.66,ESE,112,13.8,13.8,92,0.24,RA,,2.54,WeatherDisplay:10.37,2013-01-28 06:28:00,
2013-01-28 17:33:00,70.9,68.1,29.67,ENE,68,10.4,10.4,91,0.24,RA,,2.56,WeatherDisplay:10.37,2013-01-28 06:33:00,
2013-01-28 17:38:00,70.7,67.9,29.66,ENE,68,15.0,15.0,91,0.24,RA,,2.58,WeatherDisplay:10.37,2013-01-28 06:38:00,
2013-01-28 17:43:00,70.5,67.8,29.66,SW,225,17.3,17.3,91,0.26,RA,,2.62,WeatherDisplay:10.37,2013-01-28 06:43:00,
2013-01-28 17:48:00,70.5,67.8,29.66,ENE,68,16.1,16.1,91,0.26,RA,,2.64,WeatherDisplay:10.37,2013-01-28 06:48:00,
2013-01-28 17:53:00,70.5,67.8,29.66,ENE,68,10.4,10.4,91,0.28,RA,,2.66,WeatherDisplay:10.37,2013-01-28 06:53:00,
2013-01-28 17:58:00,70.5,67.8,29.66,NE,45,8.1,8.1,91,0.30,RA,,2.68,WeatherDisplay:10.37,2013-01-28 06:58:00,
2013-01-28 18:03:00,70.5,67.8,29.66,SSE,158,18.4,18.4,91,0.30,RA,,2.70,WeatherDisplay:10.37,2013-01-28 07:03:00,
2013-01-28 18:08:00,70.5,67.8,29.66,ENE,68,10.5,10.5,91,0.30,RA,,2.72,WeatherDisplay:10.37,2013-01-28 07:08:00,
2013-01-28 18:13:00,70.5,67.8,29.66,East,90,11.5,11.5,91,0.26,RA,,2.72,WeatherDisplay:10.37,2013-01-28 07:13:00,
2013-01-28 18:18:00,70.5,67.8,29.66,East,90,16.1,16.1,91,0.24,CLR,,2.72,WeatherDisplay:10.37,2013-01-28 07:18:00,
2013-01-28 18:23:00,70.5,67.8,29.65,ESE,112,10.4,10.4,91,0.20,CLR,,2.72,WeatherDisplay:10.37,2013-01-28 07:23:00,
2013-01-28 18:28:00,70.5,67.8,29.66,ENE,68,8.1,8.1,91,0.18,CLR,,2.72,WeatherDisplay:10.37,2013-01-28 07:28:00,
2013-01-28 18:33:00,70.5,67.8,29.66,SE,135,23.0,23.0,91,0.18,RA,,2.74,WeatherDisplay:10.37,2013-01-28 07:33:00,
2013-01-28 18:38:00,70.5,67.8,29.66,ENE,68,11.5,11.5,91,0.16,RA,,2.74,WeatherDisplay:10.37,2013-01-28 07:38:00,
2013-01-28 18:43:00,70.3,67.6,29.66,ESE,112,8.1,8.1,91,0.14,RA,,2.76,WeatherDisplay:10.37,2013-01-28 07:43:00,
2013-01-28 18:48:00,70.3,67.6,29.65,ENE,68,12.7,12.7,91,0.14,RA,,2.78,WeatherDisplay:10.37,2013-01-28 07:48:00,
2013-01-28 18:53:00,70.3,67.6,29.65,East,90,12.7,12.7,91,0.12,RA,,2.78,WeatherDisplay:10.37,2013-01-28 07:53:00,
2013-01-28 18:58:00,70.3,67.6,29.65,East,90,9.2,9.2,91,0.10,CLR,,2.80,WeatherDisplay:10.37,2013-01-28 07:58:00,
2013-01-28 19:03:00,70.3,67.6,29.65,East,90,10.1,10.1,91,0.12,RA,,2.82,WeatherDisplay:10.37,2013-01-28 08:03:00,
2013-01-28 19:08:00,70.2,67.4,29.65,SSE,158,13.8,13.8,91,0.12,RA,,2.84,WeatherDisplay:10.37,2013-01-28 08:08:00,
2013-01-28 19:13:00,70.2,67.4,29.65,ESE,112,19.6,19.6,91,0.14,RA,,2.86,WeatherDisplay:10.37,2013-01-28 08:13:00,
2013-01-28 19:18:00,70.2,67.7,29.65,ENE,68,11.5,11.5,92,0.16,RA,,2.90,WeatherDisplay:10.37,2013-01-28 08:18:00,
2013-01-28 19:23:00,70.3,67.9,29.65,North,0,16.1,16.1,92,0.20,RA,,2.92,WeatherDisplay:10.37,2013-01-28 08:23:00,
2013-01-28 19:28:00,70.3,67.9,29.65,NNE,22,16.1,16.1,92,0.20,RA,,2.94,WeatherDisplay:10.37,2013-01-28 08:28:00,
2013-01-28 19:33:00,70.3,67.9,29.65,ESE,112,26.5,26.5,92,0.20,RA,,2.94,WeatherDisplay:10.37,2013-01-28 08:33:00,
2013-01-28 19:38:00,70.2,67.4,29.65,ENE,68,12.7,12.7,91,0.23,RA,,2.96,WeatherDisplay:10.37,2013-01-28 08:38:00,
2013-01-28 19:43:00,70.2,67.4,29.65,North,0,10.4,10.4,91,0.21,RA,,2.96,WeatherDisplay:10.37,2013-01-28 08:43:00,
2013-01-28 19:48:00,70.0,67.2,29.65,East,90,5.8,6.0,91,0.19,CLR,,2.96,WeatherDisplay:10.37,2013-01-28 08:48:00,
2013-01-28 19:53:00,70.0,67.2,29.66,East,90,19.4,19.4,91,0.21,RA,,2.98,WeatherDisplay:10.37,2013-01-28 08:53:00,
2013-01-28 19:58:00,70.0,67.2,29.66,NE,45,15.0,15.0,91,0.21,RA,,2.98,WeatherDisplay:10.37,2013-01-28 08:58:00,
2013-01-28 20:03:00,69.8,67.1,29.66,ENE,68,17.3,17.3,91,0.17,CLR,,3.00,WeatherDisplay:10.37,2013-01-28 09:03:00,
2013-01-28 20:08:00,69.6,66.6,29.66,ESE,112,16.1,18.4,90,0.17,RA,,3.00,WeatherDisplay:10.37,2013-01-28 09:08:00,
2013-01-28 20:13:00,69.6,66.6,29.66,NE,45,21.9,21.9,90,0.15,RA,,3.00,WeatherDisplay:10.37,2013-01-28 09:13:00,
2013-01-28 20:18:00,69.4,66.7,29.66,NE,45,19.6,19.6,91,0.15,RA,,3.02,WeatherDisplay:10.37,2013-01-28 09:18:00,
2013-01-28 20:23:00,69.4,66.7,29.66,East,90,22.6,22.6,91,0.12,RA,,3.04,WeatherDisplay:10.37,2013-01-28 09:23:00,
2013-01-28 20:28:00,69.4,66.7,29.66,ENE,68,15.0,15.0,91,0.14,RA,,3.06,WeatherDisplay:10.37,2013-01-28 09:28:00,
2013-01-28 20:33:00,69.4,66.7,29.66,NE,45,14.5,14.5,91,0.14,RA,,3.08,WeatherDisplay:10.37,2013-01-28 09:33:00,
2013-01-28 20:38:00,69.4,67.0,29.66,ESE,112,10.4,10.4,92,0.14,RA,,3.10,WeatherDisplay:10.37,2013-01-28 09:38:00,
2013-01-28 20:43:00,69.4,67.0,29.67,East,90,18.4,18.4,92,0.16,RA,,3.12,WeatherDisplay:10.37,2013-01-28 09:43:00,
2013-01-28 20:49:00,69.3,66.5,29.67,ENE,68,12.7,12.7,91,0.18,RA,,3.14,WeatherDisplay:10.37,2013-01-28 09:49:00,
2013-01-28 20:54:00,69.1,66.3,29.67,ENE,68,12.7,12.7,91,0.18,RA,,3.17,WeatherDisplay:10.37,2013-01-28 09:54:00,
2013-01-28 20:59:00,69.1,66.7,29.67,NE,45,13.8,13.8,92,0.20,RA,,3.19,WeatherDisplay:10.37,2013-01-28 09:59:00,
2013-01-28 21:04:00,68.9,66.5,29.67,ENE,68,17.3,17.3,92,0.23,RA,,3.23,WeatherDisplay:10.37,2013-01-28 10:04:00,
2013-01-28 21:09:00,68.7,66.0,29.67,East,90,12.7,12.7,91,0.25,RA,,3.25,WeatherDisplay:10.37,2013-01-28 10:09:00,
2013-01-28 21:14:00,68.7,66.0,29.67,East,90,15.0,15.0,91,0.27,RA,,3.27,WeatherDisplay:10.37,2013-01-28 10:14:00,
2013-01-28 21:19:00,68.7,66.3,29.67,ENE,68,8.1,8.1,92,0.29,RA,,3.31,WeatherDisplay:10.37,2013-01-28 10:19:00,
2013-01-28 21:24:00,68.5,66.1,29.67,East,90,9.2,9.2,92,0.29,RA,,3.33,WeatherDisplay:10.37,2013-01-28 10:24:00,
2013-01-28 21:29:00,68.7,66.3,29.66,NNW,338,13.8,13.8,92,0.30,RA,,3.37,WeatherDisplay:10.37,2013-01-28 10:29:00,
2013-01-28 21:34:00,68.7,66.3,29.67,East,90,19.6,19.6,92,0.33,RA,,3.41,WeatherDisplay:10.37,2013-01-28 10:34:00,
2013-01-28 21:39:00,68.7,66.3,29.67,East,90,20.7,20.7,92,0.33,RA,,3.43,WeatherDisplay:10.37,2013-01-28 10:39:00,
2013-01-28 21:44:00,68.7,66.3,29.67,East,90,15.0,15.0,92,0.35,RA,,3.47,WeatherDisplay:10.37,2013-01-28 10:44:00,
2013-01-28 21:49:00,68.7,66.3,29.67,East,90,12.7,12.7,92,0.37,RA,,3.51,WeatherDisplay:10.37,2013-01-28 10:49:00,
2013-01-28 21:54:00,68.5,66.1,29.67,ESE,112,15.0,15.0,92,0.39,RA,,3.55,WeatherDisplay:10.37,2013-01-28 10:54:00,
2013-01-28 21:59:00,68.5,66.1,29.67,ENE,68,9.2,9.2,92,0.43,RA,,3.61,WeatherDisplay:10.37,2013-01-28 10:59:00,
2013-01-28 22:04:00,68.4,65.9,29.67,NNW,338,9.2,9.2,92,0.43,RA,,3.66,WeatherDisplay:10.37,2013-01-28 11:04:00,
2013-01-28 22:09:00,68.4,65.9,29.66,East,90,6.9,6.9,92,0.45,RA,,3.70,WeatherDisplay:10.37,2013-01-28 11:09:00,
2013-01-28 22:14:00,68.2,65.8,29.66,East,90,8.1,8.1,92,0.45,RA,,3.72,WeatherDisplay:10.37,2013-01-28 11:14:00,
2013-01-28 22:19:00,68.2,65.8,29.66,ESE,112,10.4,10.4,92,0.45,RA,,3.76,WeatherDisplay:10.37,2013-01-28 11:19:00,
2013-01-28 22:24:00,68.2,65.8,29.65,East,90,9.2,9.2,92,0.47,RA,,3.80,WeatherDisplay:10.37,2013-01-28 11:24:00,
2013-01-28 22:29:00,68.2,65.8,29.65,ENE,68,8.1,8.1,92,0.45,RA,,3.82,WeatherDisplay:10.37,2013-01-28 11:29:00,
2013-01-28 22:34:00,68.2,65.8,29.65,NE,45,10.5,10.5,92,0.43,RA,,3.84,WeatherDisplay:10.37,2013-01-28 11:34:00,
2013-01-28 22:39:00,68.2,65.8,29.64,East,90,9.2,9.2,92,0.43,RA,,3.86,WeatherDisplay:10.37,2013-01-28 11:39:00,
2013-01-28 22:44:00,68.4,65.9,29.63,NE,45,11.5,11.5,92,0.41,RA,,3.90,WeatherDisplay:10.37,2013-01-28 11:44:00,
2013-01-28 22:49:00,68.4,65.9,29.63,ESE,112,5.8,5.8,92,0.41,RA,,3.92,WeatherDisplay:10.37,2013-01-28 11:49:00,
2013-01-28 22:54:00,68.5,66.1,29.63,East,90,7.2,7.2,92,0.39,RA,,3.94,WeatherDisplay:10.37,2013-01-28 11:54:00,
2013-01-28 22:59:00,68.5,66.4,29.62,ESE,112,11.5,11.5,93,0.37,RA,,4.00,WeatherDisplay:10.37,2013-01-28 11:59:00,
2013-01-28 23:04:00,68.7,66.6,29.62,NE,45,4.6,4.6,93,0.37,RA,,4.02,WeatherDisplay:10.37,2013-01-28 12:04:00,
2013-01-28 23:09:00,68.7,66.6,29.62,East,90,8.1,8.1,93,0.37,RA,,4.06,WeatherDisplay:10.37,2013-01-28 12:09:00,
2013-01-28 23:14:00,68.9,66.8,29.61,NE,45,8.1,8.1,93,0.37,RA,,4.08,WeatherDisplay:10.37,2013-01-28 12:14:00,
2013-01-28 23:19:00,69.1,67.0,29.61,NNE,22,3.8,3.8,93,0.35,RA,,4.10,WeatherDisplay:10.37,2013-01-28 12:19:00,
2013-01-28 23:24:00,69.3,67.1,29.60,East,90,5.8,5.8,93,0.31,RA,,4.10,WeatherDisplay:10.37,2013-01-28 12:24:00,
2013-01-28 23:29:00,69.4,67.3,29.59,ENE,68,5.4,5.4,93,0.29,CLR,,4.10,WeatherDisplay:10.37,2013-01-28 12:29:00,
2013-01-28 23:34:00,69.6,67.5,29.59,ENE,68,6.9,6.9,93,0.26,CLR,,4.10,WeatherDisplay:10.37,2013-01-28 12:34:00,
2013-01-28 23:39:00,69.6,67.5,29.59,ESE,112,6.9,6.9,93,0.24,CLR,,4.10,WeatherDisplay:10.37,2013-01-28 12:39:00,
2013-01-28 23:44:00,69.6,67.5,29.59,East,90,10.4,10.4,93,0.22,CLR,,4.10,WeatherDisplay:10.37,2013-01-28 12:44:00,
2013-01-28 23:49:00,69.6,67.5,29.59,East,90,6.9,6.9,93,0.20,CLR,,4.10,WeatherDisplay:10.37,2013-01-28 12:49:00,
2013-01-28 23:54:00,69.6,67.5,29.59,NNE,22,5.1,5.1,93,0.16,CLR,,4.10,WeatherDisplay:10.37,2013-01-28 12:54:00,
2013-01-28 23:59:00,69.8,67.7,29.59,ENE,68,4.6,4.6,93,0.12,CLR,,4.10,WeatherDisplay:10.37,2013-01-28 12:59:00,